Candido Mota, Brazil
Current Conditions -  °F | °C
As of 11:00 PM on Tuesday 27 Jan 2015 (Local Time) from SBLO Reporting Station
Thunderstorm Thunderstorm  
Wind Chill: 75°   Ceiling: Unl
Heat Index: 75°   Visibility: 6mi
Dew Point: 70°   Wind: 0mph
Humidity: 83%   Direction: NA
Pressure: 29.97"   Gusts: NA
Location:  22.75°S, 50.39°W
Report Text: SBLO 280100Z 00000KT 9999 VCTS FEW040CB 24/21 Q1015
Loading
Personal Weather Stations






























Interactive Weather Map New forecast layout! Learn more

10-Day Weather Forecast

Advertisements
Track Severe Weather on mobile